createdAt,value
2023-05-24T00:02:27.364Z,5.82
2023-05-24T00:04:54.173Z,5.57
2023-05-24T00:07:23.878Z,5.85
2023-05-24T00:09:52.826Z,6.00
2023-05-24T00:12:21.499Z,5.45
2023-05-24T00:14:48.035Z,5.40
2023-05-24T00:17:14.962Z,5.60
2023-05-24T00:19:41.499Z,5.72
2023-05-24T00:22:08.040Z,5.00
2023-05-24T00:24:34.619Z,5.57
2023-05-24T00:27:01.388Z,5.15
2023-05-24T00:29:30.786Z,6.20
2023-05-24T00:31:58.776Z,4.68
2023-05-24T00:34:25.371Z,5.28
2023-05-24T00:36:54.936Z,5.57
2023-05-24T00:39:24.562Z,6.15
2023-05-24T00:41:52.308Z,5.13
2023-05-24T00:44:18.834Z,5.90
2023-05-24T00:46:45.601Z,5.22
2023-05-24T00:49:12.379Z,4.20
2023-05-24T00:51:39.055Z,5.07
2023-05-24T00:54:06.933Z,4.88
2023-05-24T00:56:33.864Z,4.63
2023-05-24T00:59:01.954Z,5.28
2023-05-24T01:01:31.271Z,4.55
2023-05-24T01:03:59.565Z,4.80
2023-05-24T01:06:28.135Z,4.53
2023-05-24T01:09:08.845Z,4.90
2023-05-24T01:11:44.581Z,5.07
2023-05-24T01:14:14.398Z,5.68
2023-05-24T01:16:53.837Z,5.10
2023-05-24T01:19:46.934Z,4.82
2023-05-24T01:22:28.170Z,5.10
2023-05-24T01:25:33.334Z,4.38
2023-05-24T01:28:00.926Z,4.05
2023-05-24T01:30:28.801Z,4.90
2023-05-24T01:32:58.364Z,4.65
2023-05-24T01:35:28.124Z,4.10
2023-05-24T01:37:58.147Z,4.57
2023-05-24T01:40:28.124Z,5.40
2023-05-24T01:43:08.816Z,4.90
2023-05-24T01:46:03.393Z,5.45
2023-05-24T01:49:11.244Z,5.32
2023-05-24T01:51:44.268Z,5.57
2023-05-24T01:54:13.454Z,4.60
2023-05-24T01:56:42.758Z,4.95
2023-05-24T01:59:09.784Z,5.20
2023-05-24T02:01:36.552Z,5.20
2023-05-24T02:04:03.738Z,5.80
2023-05-24T02:06:30.492Z,5.80
2023-05-24T02:09:00.184Z,5.55
2023-05-24T02:11:29.833Z,6.05
2023-05-24T02:13:59.172Z,5.70
2023-05-24T02:16:27.238Z,5.57
2023-05-24T02:18:54.023Z,5.95
2023-05-24T02:21:20.890Z,5.72
2023-05-24T02:23:47.445Z,6.63
2023-05-24T02:26:14.719Z,5.65
2023-05-24T02:28:41.428Z,6.40
2023-05-24T02:31:08.627Z,6.05
2023-05-24T02:33:37.442Z,6.68
2023-05-24T02:36:04.102Z,5.85
2023-05-24T02:38:31.937Z,5.82
2023-05-24T02:41:01.704Z,6.10
2023-05-24T02:43:31.349Z,5.85
2023-05-24T02:46:00.492Z,5.95
2023-05-24T02:48:29.297Z,5.78
2023-05-24T02:50:55.902Z,5.30
2023-05-24T02:53:22.462Z,5.10
2023-05-24T02:55:49.008Z,5.47
2023-05-24T02:58:17.687Z,5.60
2023-05-24T03:00:44.412Z,5.28
2023-05-24T03:03:11.124Z,4.80
2023-05-24T03:05:37.740Z,4.50
2023-05-24T03:08:04.335Z,5.00
2023-05-24T03:10:33.777Z,5.05
2023-05-24T03:13:03.469Z,4.65
2023-05-24T03:15:31.829Z,4.72
2023-05-24T03:17:58.364Z,4.43
2023-05-24T03:20:25.078Z,4.90
2023-05-24T03:22:51.654Z,4.60
2023-05-24T03:25:18.810Z,4.18
2023-05-24T03:27:45.701Z,4.70
2023-05-24T03:30:12.665Z,4.32
2023-05-24T03:32:39.259Z,4.75
2023-05-24T03:35:06.319Z,4.07
2023-05-24T03:37:32.878Z,4.05
2023-05-24T03:39:59.408Z,3.80
2023-05-24T03:42:25.983Z,4.95
2023-05-24T03:44:52.567Z,4.57
2023-05-24T03:47:19.121Z,4.22
2023-05-24T03:49:45.801Z,4.38
2023-05-24T03:52:12.405Z,4.18
2023-05-24T03:54:38.985Z,4.30
2023-05-24T03:57:05.836Z,4.53
2023-05-24T03:59:36.389Z,4.28
2023-05-24T04:02:06.004Z,3.60
2023-05-24T04:04:37.053Z,4.20
2023-05-24T04:07:08.058Z,3.97
2023-05-24T04:09:34.684Z,5.43
2023-05-24T04:12:01.302Z,4.05
2023-05-24T04:14:27.869Z,4.13
2023-05-24T04:16:55.274Z,4.03
2023-05-24T04:19:21.892Z,4.03
2023-05-24T04:21:49.949Z,4.55
2023-05-24T04:24:16.621Z,5.40
2023-05-24T04:26:43.186Z,4.35
2023-05-24T04:29:10.193Z,4.93
2023-05-24T04:31:36.924Z,5.35
2023-05-24T04:34:05.766Z,4.40
2023-05-24T04:36:35.506Z,4.53
2023-05-24T04:39:06.598Z,4.85
2023-05-24T04:41:35.859Z,4.70
2023-05-24T04:44:02.472Z,4.28
2023-05-24T04:46:29.108Z,4.28
2023-05-24T04:48:55.719Z,5.10
2023-05-24T04:51:22.667Z,4.68
2023-05-24T04:53:49.257Z,5.13
2023-05-24T04:56:17.041Z,4.72
2023-05-24T04:58:43.587Z,4.78
2023-05-24T05:01:10.370Z,5.57
2023-05-24T05:03:40.165Z,5.32
2023-05-24T05:06:10.524Z,4.55
2023-05-24T05:08:40.220Z,5.15
2023-05-24T05:11:09.979Z,5.30
2023-05-24T05:13:39.571Z,4.70
2023-05-24T05:16:09.434Z,4.55
2023-05-24T05:18:39.210Z,4.93
2023-05-24T05:21:08.866Z,6.00
2023-05-24T05:23:39.255Z,4.75
2023-05-24T05:26:11.712Z,4.88
2023-05-24T05:28:41.128Z,4.95
2023-05-24T05:31:08.961Z,4.97
2023-05-24T05:33:36.654Z,4.78
2023-05-24T05:36:03.640Z,5.28
2023-05-24T05:38:30.218Z,4.90
2023-05-24T05:40:56.736Z,4.85
2023-05-24T05:43:23.287Z,4.95
2023-05-24T05:45:49.804Z,5.28
2023-05-24T05:48:16.479Z,4.78
2023-05-24T05:50:43.111Z,4.95
2023-05-24T05:53:10.061Z,5.22
2023-05-24T05:55:36.734Z,5.35
2023-05-24T05:58:03.362Z,5.50
2023-05-24T06:00:30.017Z,4.95
2023-05-24T06:02:56.857Z,5.00
2023-05-24T06:05:23.481Z,5.35
2023-05-24T06:07:50.091Z,4.40
2023-05-24T06:10:16.874Z,4.75
2023-05-24T06:12:43.409Z,4.75
2023-05-24T06:15:14.175Z,4.90
2023-05-24T06:17:44.030Z,4.43
2023-05-24T06:20:16.994Z,5.25
2023-05-24T06:22:43.841Z,5.38
2023-05-24T06:25:19.107Z,5.18
2023-05-24T06:27:45.877Z,5.07
2023-05-24T06:30:13.589Z,5.07
2023-05-24T06:32:43.173Z,4.90
2023-05-24T06:35:12.779Z,4.15
2023-05-24T06:37:42.433Z,4.47
2023-05-24T06:40:14.853Z,5.60
2023-05-24T06:42:41.435Z,4.65
2023-05-24T06:45:10.777Z,5.07
2023-05-24T06:47:37.405Z,5.03
2023-05-24T06:50:05.045Z,5.18
2023-05-24T06:52:31.638Z,5.35
2023-05-24T06:54:58.153Z,4.70
2023-05-24T06:57:25.261Z,4.90
2023-05-24T06:59:52.008Z,4.93
2023-05-24T07:02:18.650Z,4.53
2023-05-24T07:04:46.128Z,6.10
2023-05-24T07:07:14.466Z,5.07
2023-05-24T07:09:42.474Z,4.32
2023-05-24T07:12:11.193Z,5.38
2023-05-24T07:14:40.425Z,5.50
2023-05-24T07:17:06.987Z,4.97
2023-05-24T07:19:35.890Z,5.90
2023-05-24T07:22:02.737Z,6.72
2023-05-24T07:24:29.485Z,5.50
2023-05-24T07:26:58.948Z,5.10
2023-05-24T07:29:26.151Z,5.10
2023-05-24T07:31:52.818Z,6.20
2023-05-24T07:34:21.221Z,5.32
2023-05-24T07:36:49.570Z,10.05
2023-05-24T07:39:16.672Z,4.60
2023-05-24T07:41:43.587Z,4.53
2023-05-24T07:44:13.822Z,7.47
2023-05-24T07:46:41.271Z,5.57
2023-05-24T07:49:10.520Z,6.38
2023-05-24T07:51:38.363Z,8.75
2023-05-24T07:54:05.877Z,6.35
2023-05-24T07:56:32.362Z,5.43
2023-05-24T07:59:04.988Z,7.35
2023-05-24T08:01:34.587Z,5.18
2023-05-24T08:04:04.185Z,6.55
2023-05-24T08:06:32.734Z,5.90
2023-05-24T08:08:59.370Z,5.90
2023-05-24T08:11:26.605Z,7.25
2023-05-24T08:13:53.209Z,4.72
2023-05-24T08:16:19.805Z,8.73
2023-05-24T08:18:46.370Z,8.13
2023-05-24T08:21:12.994Z,8.55
2023-05-24T08:23:42.544Z,9.18
2023-05-24T08:26:12.317Z,8.60
2023-05-24T08:28:42.044Z,8.25
2023-05-24T08:31:12.590Z,8.68
2023-05-24T08:33:43.038Z,7.93
2023-05-24T08:36:12.479Z,8.48
2023-05-24T08:38:42.014Z,7.63
2023-05-24T08:41:11.602Z,7.75
2023-05-24T08:43:39.663Z,9.75
2023-05-24T08:46:09.844Z,8.05
2023-05-24T08:48:45.183Z,8.48
2023-05-24T08:51:14.034Z,7.38
2023-05-24T08:53:42.086Z,7.57
2023-05-24T08:56:10.561Z,7.60
2023-05-24T08:58:47.250Z,7.22
2023-05-24T09:01:16.673Z,8.43
2023-05-24T09:03:45.319Z,7.68
2023-05-24T09:06:13.417Z,7.78
2023-05-24T09:08:43.745Z,7.90
2023-05-24T09:11:16.401Z,7.75
2023-05-24T09:13:45.640Z,7.43
2023-05-24T09:16:12.560Z,7.97
2023-05-24T09:18:42.838Z,7.43
2023-05-24T09:21:13.250Z,7.70
2023-05-24T09:23:43.305Z,7.55
2023-05-24T09:26:13.332Z,8.27
2023-05-24T09:28:42.084Z,8.07
2023-05-24T09:31:13.726Z,7.78
2023-05-24T09:33:43.026Z,7.40
2023-05-24T09:36:17.207Z,7.93
2023-05-24T09:38:43.747Z,6.97
2023-05-24T09:41:13.288Z,7.75
2023-05-24T09:43:58.289Z,7.88
2023-05-24T09:46:24.839Z,7.88
2023-05-24T09:48:58.399Z,8.00
2023-05-24T09:51:25.190Z,7.45
2023-05-24T09:53:54.517Z,7.72
2023-05-24T09:56:23.737Z,8.35
2023-05-24T09:58:51.583Z,7.90
2023-05-24T10:01:19.178Z,8.25
2023-05-24T10:03:57.470Z,7.97
2023-05-24T10:06:25.359Z,7.40
2023-05-24T10:08:54.377Z,7.82
2023-05-24T10:11:21.317Z,7.43
2023-05-24T10:13:49.035Z,7.05
2023-05-24T10:16:16.493Z,8.43
2023-05-24T10:18:43.013Z,7.53
2023-05-24T10:21:13.701Z,8.18
2023-05-24T10:23:45.058Z,8.00
2023-05-24T10:26:14.279Z,7.90
2023-05-24T10:28:53.132Z,7.60
2023-05-24T10:31:26.597Z,7.55
2023-05-24T10:34:04.085Z,8.70
2023-05-24T10:36:35.092Z,8.40
2023-05-24T10:39:01.958Z,8.18
2023-05-24T10:41:28.965Z,8.65
2023-05-24T10:44:09.247Z,8.23
2023-05-24T10:46:45.250Z,7.90
2023-05-24T10:49:13.829Z,8.15
2023-05-24T10:51:45.394Z,8.50
2023-05-24T10:54:14.198Z,8.50
2023-05-24T10:56:43.156Z,9.40
2023-05-24T10:59:23.022Z,8.80
2023-05-24T11:01:57.933Z,7.60
2023-05-24T11:04:25.170Z,7.93
2023-05-24T11:07:03.144Z,9.05
2023-05-24T11:09:30.191Z,8.20
2023-05-24T11:12:09.653Z,8.20
2023-05-24T11:14:48.124Z,6.93
2023-05-24T11:17:14.706Z,7.10
2023-05-24T11:19:54.741Z,7.78
2023-05-24T11:22:24.636Z,8.07
2023-05-24T11:24:53.238Z,8.27
2023-05-24T11:27:20.005Z,7.82
2023-05-24T11:29:48.343Z,7.60
2023-05-24T11:32:19.895Z,8.88
2023-05-24T11:34:47.555Z,8.70
2023-05-24T11:37:17.727Z,9.07
2023-05-24T11:39:51.220Z,8.50
2023-05-24T11:42:18.143Z,8.43
2023-05-24T11:44:48.496Z,8.95
2023-05-24T11:47:15.598Z,8.93
2023-05-24T11:49:50.315Z,8.40
2023-05-24T11:52:17.421Z,9.18
2023-05-24T11:54:44.115Z,7.63
2023-05-24T11:57:14.414Z,8.15
2023-05-24T11:59:43.984Z,8.35
2023-05-24T12:02:12.721Z,8.50
2023-05-24T12:04:39.333Z,7.95
2023-05-24T12:07:14.058Z,7.65
2023-05-24T12:09:43.236Z,8.30
2023-05-24T12:12:14.460Z,8.10
2023-05-24T12:14:42.322Z,7.28
2023-05-24T12:17:16.057Z,7.47
2023-05-24T12:19:48.644Z,7.40
2023-05-24T12:22:15.333Z,8.00
2023-05-24T12:24:43.486Z,8.05
2023-05-24T12:27:13.459Z,8.35
2023-05-24T12:29:41.975Z,7.88
2023-05-24T12:32:16.908Z,8.70
2023-05-24T12:34:45.342Z,7.78
2023-05-24T12:37:14.524Z,7.45
2023-05-24T12:39:45.295Z,7.72
2023-05-24T12:42:14.115Z,6.55
2023-05-24T12:44:40.992Z,7.70
2023-05-24T12:47:08.842Z,7.82
2023-05-24T12:49:36.004Z,6.70
2023-05-24T12:52:02.695Z,6.65
2023-05-24T12:54:29.967Z,5.85
2023-05-24T12:56:57.814Z,6.45
2023-05-24T12:59:25.592Z,6.20
2023-05-24T13:01:52.685Z,6.47
2023-05-24T13:04:22.121Z,6.20
2023-05-24T13:06:49.337Z,6.40
2023-05-24T13:09:20.782Z,6.00
2023-05-24T13:11:47.405Z,5.72
2023-05-24T13:14:18.152Z,5.40
2023-05-24T13:16:48.125Z,5.55
2023-05-24T13:19:17.866Z,5.35
2023-05-24T13:21:45.734Z,5.20
2023-05-24T13:24:17.941Z,5.50
2023-05-24T13:26:46.091Z,5.82
2023-05-24T13:31:47.153Z,6.05
2023-05-24T13:34:15.646Z,5.32
2023-05-24T13:36:45.844Z,6.72
2023-05-24T13:39:16.743Z,6.05
2023-05-24T13:41:45.453Z,5.70
2023-05-24T13:44:18.399Z,5.70
2023-05-24T13:46:46.062Z,5.30
2023-05-24T13:49:13.666Z,5.28
2023-05-24T13:51:40.628Z,5.13
2023-05-24T13:54:08.128Z,5.25
2023-05-24T13:56:35.929Z,5.20
2023-05-24T13:59:03.765Z,5.20
2023-05-24T14:01:31.267Z,5.70
2023-05-24T14:03:58.281Z,5.30
2023-05-24T14:06:24.925Z,4.95
2023-05-24T14:08:52.161Z,4.47
2023-05-24T14:11:19.699Z,4.90
2023-05-24T14:16:15.987Z,4.80
2023-05-24T14:18:44.511Z,4.75
2023-05-24T14:21:11.686Z,5.43
2023-05-24T14:23:38.873Z,5.13
2023-05-24T14:26:05.623Z,6.70
2023-05-24T14:28:32.117Z,6.10
2023-05-24T14:30:58.688Z,5.28
2023-05-24T14:33:25.214Z,5.93
2023-05-24T14:35:51.936Z,5.07
2023-05-24T14:38:18.629Z,4.90
2023-05-24T14:40:48.074Z,5.32
2023-05-24T14:43:15.530Z,4.85
2023-05-24T14:45:42.865Z,5.78
2023-05-24T14:48:11.755Z,4.95
2023-05-24T14:50:40.088Z,5.00
2023-05-24T14:53:12.033Z,5.63
2023-05-24T14:55:41.100Z,5.00
2023-05-24T14:58:09.247Z,5.50
2023-05-24T15:00:36.629Z,5.28
2023-05-24T15:03:03.534Z,5.50
2023-05-24T15:05:30.230Z,5.75
2023-05-24T15:07:56.881Z,4.70
2023-05-24T15:10:23.454Z,4.40
2023-05-24T15:12:51.914Z,4.80
2023-05-24T15:15:19.087Z,5.90
2023-05-24T15:17:48.485Z,5.85
2023-05-24T15:20:19.589Z,5.85
2023-05-24T15:22:46.381Z,6.63
2023-05-24T15:25:15.343Z,6.15
2023-05-24T15:27:41.859Z,5.07
2023-05-24T15:30:08.507Z,5.00
2023-05-24T15:32:35.189Z,5.47
2023-05-24T15:35:01.854Z,5.28
2023-05-24T15:37:28.550Z,6.03
2023-05-24T15:39:55.094Z,5.70
2023-05-24T15:42:23.566Z,7.18
2023-05-24T15:44:50.610Z,5.78
2023-05-24T15:47:17.572Z,5.55
2023-05-24T15:49:45.781Z,6.63
2023-05-24T15:52:14.985Z,8.05
2023-05-24T15:54:46.682Z,5.30
2023-05-24T15:57:16.572Z,5.68
2023-05-24T15:59:45.195Z,5.53
2023-05-24T16:02:11.743Z,6.10
2023-05-24T16:04:38.883Z,5.88
2023-05-24T16:07:06.345Z,6.07
2023-05-24T16:09:32.859Z,6.35
2023-05-24T16:12:00.932Z,6.40
2023-05-24T16:14:27.774Z,5.78
2023-05-24T16:16:58.578Z,6.75
2023-05-24T16:19:25.775Z,5.95
2023-05-24T16:21:52.315Z,6.30
2023-05-24T16:24:19.660Z,5.85
2023-05-24T16:26:46.396Z,6.03
2023-05-24T16:29:15.082Z,6.10
2023-05-24T16:31:41.706Z,6.20
2023-05-24T16:34:08.245Z,6.70
2023-05-24T16:36:34.792Z,6.35
2023-05-24T16:39:01.322Z,6.40
2023-05-24T16:41:34.661Z,5.60
2023-05-24T16:44:01.164Z,5.93
2023-05-24T16:46:27.732Z,6.15
2023-05-24T16:48:54.289Z,6.35
2023-05-24T16:51:20.885Z,6.35
2023-05-24T16:53:50.870Z,6.00
2023-05-24T16:56:20.398Z,6.43
2023-05-24T16:58:49.769Z,6.50
2023-05-24T17:01:19.472Z,6.47
2023-05-24T17:03:47.752Z,6.15
2023-05-24T17:06:14.328Z,6.18
2023-05-24T17:08:41.787Z,6.20
2023-05-24T17:11:08.302Z,6.13
2023-05-24T17:13:34.903Z,6.40
2023-05-24T17:16:03.565Z,6.13
2023-05-24T17:18:30.264Z,5.32
2023-05-24T17:20:58.668Z,5.25
2023-05-24T17:23:26.293Z,5.28
2023-05-24T17:25:55.408Z,5.75
2023-05-24T17:28:28.853Z,6.25
2023-05-24T17:30:59.832Z,5.97
2023-05-24T17:33:29.152Z,5.70
2023-05-24T17:35:56.918Z,6.00
2023-05-24T17:38:24.883Z,5.82
2023-05-24T17:40:56.799Z,6.47
2023-05-24T17:43:24.023Z,6.93
2023-05-24T17:45:51.117Z,6.22
2023-05-24T17:48:20.232Z,6.35
2023-05-24T17:50:49.473Z,7.05
2023-05-24T17:53:30.826Z,5.60
2023-05-24T17:55:58.298Z,5.28
2023-05-24T17:58:25.198Z,5.80
2023-05-24T18:00:51.955Z,5.60
2023-05-24T18:03:18.768Z,5.80
2023-05-24T18:05:49.135Z,5.45
2023-05-24T18:08:19.419Z,6.40
2023-05-24T18:10:48.663Z,6.10
2023-05-24T18:13:17.606Z,6.47
2023-05-24T18:15:44.635Z,5.22
2023-05-24T18:18:12.254Z,5.53
2023-05-24T18:20:39.566Z,5.35
2023-05-24T18:23:06.652Z,5.45
2023-05-24T18:25:33.410Z,6.00
2023-05-24T18:28:00.541Z,5.15
2023-05-24T18:30:55.751Z,5.90
2023-05-24T18:33:22.818Z,5.57
2023-05-24T18:35:56.568Z,5.32
2023-05-24T18:38:23.111Z,5.63
2023-05-24T18:40:49.602Z,5.40
2023-05-24T18:43:19.030Z,5.78
2023-05-24T18:45:50.138Z,5.93
2023-05-24T18:48:19.620Z,6.00
2023-05-24T18:50:50.184Z,5.75
2023-05-24T18:53:19.579Z,5.75
2023-05-24T18:55:49.737Z,5.45
2023-05-24T18:58:19.378Z,5.70
2023-05-24T19:00:50.414Z,4.90
2023-05-24T19:03:22.372Z,5.55
2023-05-24T19:05:49.446Z,5.28
2023-05-24T19:08:19.661Z,4.75
2023-05-24T19:10:49.194Z,6.28
2023-05-24T19:13:19.464Z,5.72
2023-05-24T19:15:48.837Z,5.63
2023-05-24T19:18:17.579Z,5.07
2023-05-24T19:20:44.413Z,5.75
2023-05-24T19:23:11.057Z,5.00
2023-05-24T19:25:41.977Z,5.45
2023-05-24T19:28:08.873Z,5.47
2023-05-24T19:30:36.869Z,5.57
2023-05-24T19:33:03.726Z,5.72
2023-05-24T19:35:30.372Z,5.40
2023-05-24T19:37:56.889Z,5.85
2023-05-24T19:40:23.491Z,5.65
2023-05-24T19:42:50.140Z,5.63
2023-05-24T19:45:19.756Z,5.55
2023-05-24T19:47:49.196Z,5.47
2023-05-24T19:50:19.296Z,5.35
2023-05-24T19:52:48.555Z,4.60
2023-05-24T19:55:17.980Z,3.15
2023-05-24T19:57:46.942Z,3.53
2023-05-24T20:00:13.960Z,2.63
2023-05-24T20:02:40.665Z,2.00
2023-05-24T20:05:07.681Z,1.95
2023-05-24T20:07:34.206Z,1.90
2023-05-24T20:10:01.161Z,2.40
2023-05-24T20:12:28.527Z,2.47
2023-05-24T20:14:55.060Z,2.55
2023-05-24T20:17:21.611Z,1.80
2023-05-24T20:19:48.170Z,1.73
2023-05-24T20:22:16.801Z,1.50
2023-05-24T20:24:43.420Z,2.15
2023-05-24T20:27:09.943Z,1.30
2023-05-24T20:29:36.877Z,1.67
2023-05-24T20:32:03.621Z,1.65
2023-05-24T20:34:30.751Z,1.38
2023-05-24T20:36:57.348Z,1.65
2023-05-24T20:39:23.939Z,1.63
2023-05-24T20:41:50.678Z,1.48
2023-05-24T20:44:17.948Z,1.45
2023-05-24T20:46:44.444Z,1.30
2023-05-24T20:49:11.185Z,1.80
2023-05-24T20:51:37.735Z,1.52
2023-05-24T20:54:04.512Z,1.48
2023-05-24T20:56:30.987Z,1.42
2023-05-24T20:58:59.877Z,1.52
2023-05-24T21:01:27.000Z,1.50
2023-05-24T21:03:53.569Z,1.40
2023-05-24T21:06:22.822Z,1.20
2023-05-24T21:08:49.396Z,1.45
2023-05-24T21:11:16.372Z,1.30
2023-05-24T21:13:42.898Z,1.30
2023-05-24T21:16:11.988Z,1.50
2023-05-24T21:18:39.114Z,1.50
2023-05-24T21:21:06.518Z,1.73
2023-05-24T21:23:33.035Z,1.05
2023-05-24T21:25:59.570Z,1.20
2023-05-24T21:28:27.196Z,1.20
2023-05-24T21:30:53.740Z,1.65
2023-05-24T21:33:20.568Z,1.45
2023-05-24T21:35:49.280Z,1.45
2023-05-24T21:38:15.843Z,1.52
2023-05-24T21:40:42.464Z,1.60
2023-05-24T21:43:12.490Z,1.30
2023-05-24T21:45:39.497Z,1.50
2023-05-24T21:48:06.459Z,1.30
2023-05-24T21:50:34.334Z,1.83
2023-05-24T21:53:02.055Z,1.48
2023-05-24T21:55:29.591Z,1.52
2023-05-24T21:57:56.922Z,1.30
2023-05-24T22:00:23.565Z,1.10
2023-05-24T22:02:51.062Z,1.23
2023-05-24T22:05:20.600Z,1.42
2023-05-24T22:07:47.170Z,1.98
2023-05-24T22:10:13.765Z,1.95
2023-05-24T22:12:40.457Z,1.40
2023-05-24T22:15:07.586Z,1.25
2023-05-24T22:17:36.997Z,1.30
2023-05-24T22:20:06.042Z,1.48
2023-05-24T22:22:32.721Z,1.40
2023-05-24T22:25:02.293Z,1.52
2023-05-24T22:27:29.586Z,1.88
2023-05-24T22:29:56.245Z,1.50
2023-05-24T22:32:23.223Z,2.03
2023-05-24T22:34:52.275Z,2.42
2023-05-24T22:37:19.163Z,1.45
2023-05-24T22:39:45.746Z,1.45
2023-05-24T22:42:12.315Z,1.67
2023-05-24T22:44:38.865Z,1.70
2023-05-24T22:47:05.839Z,1.33
2023-05-24T22:49:34.146Z,1.92
2023-05-24T22:52:01.006Z,1.02
2023-05-24T22:54:27.588Z,1.30
2023-05-24T22:56:54.118Z,1.35
2023-05-24T22:59:20.657Z,1.58
2023-05-24T23:01:47.359Z,1.48
2023-05-24T23:04:20.948Z,1.55
2023-05-24T23:06:49.416Z,1.80
2023-05-24T23:09:17.582Z,1.63
2023-05-24T23:11:44.450Z,2.00
2023-05-24T23:14:11.367Z,1.52
2023-05-24T23:16:45.420Z,1.40
2023-05-24T23:19:18.252Z,1.65
2023-05-24T23:21:45.228Z,2.20
2023-05-24T23:24:14.605Z,2.00
2023-05-24T23:26:41.964Z,1.85
2023-05-24T23:29:08.963Z,1.50
2023-05-24T23:31:35.949Z,1.40
2023-05-24T23:34:02.746Z,1.30
2023-05-24T23:36:29.244Z,1.98
2023-05-24T23:38:56.226Z,1.30
2023-05-24T23:41:22.747Z,1.75
2023-05-24T23:43:49.379Z,2.05
2023-05-24T23:46:17.112Z,1.75
2023-05-24T23:48:43.774Z,1.08
2023-05-24T23:51:10.588Z,1.73
2023-05-24T23:53:37.130Z,1.48
2023-05-24T23:56:03.839Z,1.42
2023-05-24T23:58:30.409Z,1.98
